QXE2060 KSEA-KGPI
Flight info
| Callsign | QXE2060 |
|---|---|
| Flight time | 0h 55m |
| Altitude | 31000 |
| Route | MONTN2 SEA ZADON ZELAK ZIRAN ZAXBY OLIBY |
| Aircraft | E75L/M-SDE3GILORVW/S |
Departure
| Time | 2026-05-08 16:43 |
|---|---|
| Airport | Seattle–Tacoma International Airport (KSEA) |
Arrival
| Time | 2026-05-08 17:38 |
|---|---|
| Airport | Glacier Park International Airport (KGPI) |
| Time | Latitude | Longitude | Altitude | Speed | Heading |
|---|---|---|---|---|---|
| 2026-05-08 16:16 | 47.44940 | -122.30391 | 391 ft | 0 kts | 131° |
| 2026-05-08 16:21 | 47.44941 | -122.30391 | 391 ft | 0 kts | 131° |
| 2026-05-08 16:24 | 47.44941 | -122.30392 | 391 ft | 0 kts | 131° |
| 2026-05-08 16:31 | 47.44949 | -122.30406 | 391 ft | 4 kts | 128° |
| 2026-05-08 16:31 | 47.44965 | -122.30439 | 391 ft | 4 kts | 119° |
| 2026-05-08 16:32 | 47.44976 | -122.30475 | 391 ft | 4 kts | 105° |
| 2026-05-08 16:32 | 47.44979 | -122.30512 | 391 ft | 4 kts | 71° |
| 2026-05-08 16:32 | 47.44970 | -122.30530 | 391 ft | 1 kts | 0° |
| 2026-05-08 16:33 | 47.44969 | -122.30530 | 391 ft | 0 kts | 360° |
| 2026-05-08 16:37 | 47.44987 | -122.30528 | 391 ft | 6 kts | 9° |
| 2026-05-08 16:37 | 47.45031 | -122.30486 | 391 ft | 1 kts | 64° |
| 2026-05-08 16:38 | 47.45033 | -122.30457 | 391 ft | 7 kts | 91° |
| 2026-05-08 16:38 | 47.45030 | -122.30414 | 391 ft | 1 kts | 111° |
| 2026-05-08 16:38 | 47.45005 | -122.30411 | 391 ft | 8 kts | 214° |
| 2026-05-08 16:38 | 47.44963 | -122.30482 | 391 ft | 9 kts | 246° |
| 2026-05-08 16:39 | 47.44954 | -122.30564 | 391 ft | 3 kts | 280° |
| 2026-05-08 16:39 | 47.44974 | -122.30617 | 391 ft | 8 kts | 330° |
| 2026-05-08 16:39 | 47.45045 | -122.30620 | 391 ft | 13 kts | 2° |
| 2026-05-08 16:39 | 47.45157 | -122.30618 | 391 ft | 19 kts | 1° |
| 2026-05-08 16:40 | 47.45298 | -122.30616 | 391 ft | 17 kts | 0° |
| 2026-05-08 16:40 | 47.45434 | -122.30617 | 392 ft | 17 kts | 0° |
| 2026-05-08 16:40 | 47.45571 | -122.30615 | 392 ft | 22 kts | 0° |
| 2026-05-08 16:40 | 47.45746 | -122.30612 | 392 ft | 28 kts | 0° |
| 2026-05-08 16:41 | 47.45935 | -122.30610 | 392 ft | 24 kts | 359° |
| 2026-05-08 16:41 | 47.46121 | -122.30612 | 392 ft | 27 kts | 359° |
| 2026-05-08 16:41 | 47.46241 | -122.30612 | 392 ft | 7 kts | 355° |
| 2026-05-08 16:42 | 47.46269 | -122.30639 | 392 ft | 0 kts | 307° |
| 2026-05-08 16:42 | 47.46274 | -122.30650 | 392 ft | 4 kts | 300° |
| 2026-05-08 16:42 | 47.46284 | -122.30718 | 392 ft | 10 kts | 264° |
| 2026-05-08 16:42 | 47.46264 | -122.30771 | 392 ft | 6 kts | 210° |
| 2026-05-08 16:43 | 47.46233 | -122.30778 | 392 ft | 1 kts | 180° |
| 2026-05-08 16:43 | 47.45954 | -122.30784 | 392 ft | 97 kts | 179° |
| 2026-05-08 16:43 | 47.45034 | -122.30788 | 1005 ft | 156 kts | 178° |
| 2026-05-08 16:43 | 47.43842 | -122.30759 | 2350 ft | 183 kts | 180° |
| 2026-05-08 16:44 | 47.42541 | -122.30695 | 3216 ft | 177 kts | 182° |
| 2026-05-08 16:44 | 47.41372 | -122.30609 | 3288 ft | 160 kts | 176° |
| 2026-05-08 16:44 | 47.40307 | -122.30291 | 3265 ft | 162 kts | 152° |
| 2026-05-08 16:44 | 47.39138 | -122.29493 | 3306 ft | 229 kts | 160° |
| 2026-05-08 16:45 | 47.37828 | -122.27996 | 3390 ft | 237 kts | 131° |
| 2026-05-08 16:45 | 47.36692 | -122.26314 | 3516 ft | 230 kts | 147° |
| 2026-05-08 16:45 | 47.35562 | -122.24732 | 3816 ft | 224 kts | 127° |
| 2026-05-08 16:45 | 47.35144 | -122.22582 | 4049 ft | 230 kts | 92° |
| 2026-05-08 16:46 | 47.35625 | -122.20066 | 4352 ft | 277 kts | 62° |
| 2026-05-08 16:46 | 47.36932 | -122.17918 | 4641 ft | 287 kts | 35° |
| 2026-05-08 16:46 | 47.38743 | -122.16653 | 4926 ft | 288 kts | 21° |
| 2026-05-08 16:46 | 47.40347 | -122.14904 | 5165 ft | 290 kts | 52° |
| 2026-05-08 16:47 | 47.41207 | -122.12245 | 5385 ft | 288 kts | 73° |
| 2026-05-08 16:47 | 47.41801 | -122.09419 | 5641 ft | 289 kts | 74° |
| 2026-05-08 16:47 | 47.42436 | -122.06610 | 6149 ft | 292 kts | 71° |
| 2026-05-08 16:47 | 47.43198 | -122.03820 | 6662 ft | 295 kts | 66° |
| 2026-05-08 16:48 | 47.44041 | -122.01096 | 7141 ft | 296 kts | 64° |
| 2026-05-08 16:48 | 47.45068 | -121.98467 | 7618 ft | 294 kts | 56° |
| 2026-05-08 16:48 | 47.46194 | -121.95906 | 8138 ft | 298 kts | 55° |
| 2026-05-08 16:48 | 47.47360 | -121.93342 | 8642 ft | 303 kts | 54° |
| 2026-05-08 16:49 | 47.48542 | -121.90762 | 9193 ft | 307 kts | 54° |
| 2026-05-08 16:49 | 47.49742 | -121.88143 | 9735 ft | 308 kts | 54° |
| 2026-05-08 16:49 | 47.50954 | -121.85490 | 10268 ft | 319 kts | 54° |
| 2026-05-08 16:49 | 47.52231 | -121.82688 | 10771 ft | 339 kts | 54° |
| 2026-05-08 16:50 | 47.53559 | -121.79754 | 11319 ft | 343 kts | 54° |
| 2026-05-08 16:50 | 47.54692 | -121.76651 | 11946 ft | 346 kts | 68° |
| 2026-05-08 16:50 | 47.55382 | -121.73224 | 12586 ft | 350 kts | 78° |
| 2026-05-08 16:50 | 47.55804 | -121.69680 | 13244 ft | 352 kts | 83° |
| 2026-05-08 16:51 | 47.56058 | -121.66114 | 13873 ft | 356 kts | 89° |
| 2026-05-08 16:51 | 47.56058 | -121.62464 | 14452 ft | 356 kts | 92° |
| 2026-05-08 16:51 | 47.56026 | -121.58789 | 15042 ft | 355 kts | 93° |
| 2026-05-08 16:51 | 47.55982 | -121.55080 | 15678 ft | 363 kts | 94° |
| 2026-05-08 16:52 | 47.55933 | -121.51338 | 16310 ft | 364 kts | 94° |
| 2026-05-08 16:52 | 47.55881 | -121.47555 | 16945 ft | 369 kts | 94° |
| 2026-05-08 16:52 | 47.55826 | -121.43750 | 17575 ft | 372 kts | 94° |
| 2026-05-08 16:52 | 47.55771 | -121.39949 | 18228 ft | 376 kts | 94° |
| 2026-05-08 16:53 | 47.55652 | -121.32129 | 19398 ft | 385 kts | 95° |
| 2026-05-08 16:53 | 47.55590 | -121.28158 | 19962 ft | 389 kts | 94° |
| 2026-05-08 16:53 | 47.55525 | -121.24129 | 20534 ft | 393 kts | 94° |
| 2026-05-08 16:54 | 47.55460 | -121.20086 | 21164 ft | 397 kts | 94° |
| 2026-05-08 16:54 | 47.55389 | -121.15969 | 21815 ft | 403 kts | 94° |
| 2026-05-08 16:54 | 47.55315 | -121.11794 | 22463 ft | 408 kts | 93° |
| 2026-05-08 16:54 | 47.55245 | -121.07567 | 23133 ft | 413 kts | 94° |
| 2026-05-08 16:55 | 47.55166 | -121.03303 | 23738 ft | 418 kts | 94° |
| 2026-05-08 16:55 | 47.55090 | -120.98986 | 24296 ft | 420 kts | 94° |
| 2026-05-08 16:55 | 47.55008 | -120.94644 | 24876 ft | 423 kts | 94° |
| 2026-05-08 16:55 | 47.54925 | -120.90281 | 25472 ft | 426 kts | 95° |
| 2026-05-08 16:56 | 47.54838 | -120.85878 | 26067 ft | 430 kts | 95° |
| 2026-05-08 16:56 | 47.54751 | -120.81433 | 26700 ft | 433 kts | 95° |
| 2026-05-08 16:56 | 47.54662 | -120.77027 | 27318 ft | 436 kts | 95° |
| 2026-05-08 16:56 | 47.54565 | -120.72520 | 27964 ft | 440 kts | 95° |
| 2026-05-08 16:57 | 47.54474 | -120.67975 | 28587 ft | 443 kts | 95° |
| 2026-05-08 16:57 | 47.54374 | -120.63416 | 29217 ft | 445 kts | 95° |
| 2026-05-08 16:57 | 47.54278 | -120.58831 | 29900 ft | 446 kts | 95° |
| 2026-05-08 16:57 | 47.54175 | -120.54221 | 30507 ft | 448 kts | 95° |
| 2026-05-08 16:58 | 47.54172 | -120.54083 | 30525 ft | 448 kts | 95° |
| 2026-05-08 16:58 | 47.54099 | -120.50498 | 30791 ft | 454 kts | 95° |
| 2026-05-08 16:58 | 47.53976 | -120.45779 | 30905 ft | 461 kts | 96° |
| 2026-05-08 16:59 | 47.53820 | -120.36255 | 31007 ft | 466 kts | 94° |
| 2026-05-08 16:59 | 47.53672 | -120.26656 | 30996 ft | 467 kts | 94° |
| 2026-05-08 17:00 | 47.53516 | -120.17011 | 31003 ft | 478 kts | 94° |
| 2026-05-08 17:00 | 47.53435 | -120.12021 | 31013 ft | 491 kts | 94° |
| 2026-05-08 17:00 | 47.53349 | -120.06905 | 31021 ft | 502 kts | 94° |
| 2026-05-08 17:01 | 47.53168 | -119.96457 | 30988 ft | 508 kts | 94° |
| 2026-05-08 17:01 | 47.52978 | -119.86066 | 30969 ft | 507 kts | 94° |
| 2026-05-08 17:02 | 47.52777 | -119.75618 | 30987 ft | 507 kts | 94° |
| 2026-05-08 17:02 | 47.52565 | -119.65188 | 30993 ft | 507 kts | 94° |
| 2026-05-08 17:03 | 47.52349 | -119.54780 | 30996 ft | 507 kts | 94° |
| 2026-05-08 17:03 | 47.52120 | -119.44360 | 31005 ft | 507 kts | 94° |
| 2026-05-08 17:04 | 47.51882 | -119.33939 | 30999 ft | 506 kts | 94° |
| 2026-05-08 17:04 | 47.51636 | -119.23591 | 30998 ft | 506 kts | 94° |
| 2026-05-08 17:05 | 47.51378 | -119.13151 | 31002 ft | 510 kts | 94° |
| 2026-05-08 17:05 | 47.51121 | -119.02681 | 31000 ft | 509 kts | 93° |
| 2026-05-08 17:06 | 47.50854 | -118.92512 | 30997 ft | 509 kts | 94° |
| 2026-05-08 17:06 | 47.50559 | -118.82033 | 31002 ft | 509 kts | 94° |
| 2026-05-08 17:07 | 47.50264 | -118.71714 | 30992 ft | 509 kts | 94° |
| 2026-05-08 17:07 | 47.49955 | -118.61131 | 30998 ft | 512 kts | 94° |
| 2026-05-08 17:08 | 47.49637 | -118.50621 | 31020 ft | 511 kts | 94° |
| 2026-05-08 17:08 | 47.49475 | -118.45370 | 31306 ft | 509 kts | 94° |
| 2026-05-08 17:08 | 47.49309 | -118.40080 | 31839 ft | 507 kts | 94° |
| 2026-05-08 17:09 | 47.49147 | -118.34939 | 32357 ft | 505 kts | 94° |
| 2026-05-08 17:09 | 47.48981 | -118.29770 | 32807 ft | 505 kts | 94° |
| 2026-05-08 17:09 | 47.48810 | -118.24552 | 32928 ft | 511 kts | 94° |
| 2026-05-08 17:09 | 47.48634 | -118.19254 | 32989 ft | 514 kts | 94° |
| 2026-05-08 17:10 | 47.48281 | -118.08737 | 33017 ft | 511 kts | 94° |
| 2026-05-08 17:10 | 47.47918 | -117.98253 | 33016 ft | 511 kts | 94° |
| 2026-05-08 17:11 | 47.47544 | -117.87763 | 33029 ft | 511 kts | 94° |
| 2026-05-08 17:11 | 47.47164 | -117.77348 | 33029 ft | 510 kts | 94° |
| 2026-05-08 17:12 | 47.46774 | -117.66866 | 33033 ft | 511 kts | 93° |
| 2026-05-08 17:12 | 47.47566 | -117.56452 | 33045 ft | 511 kts | 74° |
| 2026-05-08 17:13 | 47.50111 | -117.46662 | 33054 ft | 511 kts | 68° |
| 2026-05-08 17:13 | 47.52569 | -117.36788 | 33050 ft | 510 kts | 69° |
| 2026-05-08 17:14 | 47.54983 | -117.26892 | 33057 ft | 511 kts | 69° |
| 2026-05-08 17:14 | 47.57376 | -117.17054 | 33042 ft | 511 kts | 69° |
| 2026-05-08 17:15 | 47.59777 | -117.07143 | 33065 ft | 511 kts | 69° |
| 2026-05-08 17:15 | 47.62176 | -116.97201 | 33068 ft | 511 kts | 69° |
| 2026-05-08 17:16 | 47.62966 | -116.93914 | 32901 ft | 510 kts | 68° |
| 2026-05-08 17:16 | 47.64153 | -116.88969 | 32572 ft | 509 kts | 68° |
| 2026-05-08 17:16 | 47.65340 | -116.84020 | 32293 ft | 509 kts | 69° |
| 2026-05-08 17:16 | 47.66523 | -116.79069 | 32003 ft | 509 kts | 69° |
| 2026-05-08 17:17 | 47.67697 | -116.74143 | 31704 ft | 497 kts | 69° |
| 2026-05-08 17:17 | 47.68821 | -116.69421 | 31386 ft | 473 kts | 68° |
| 2026-05-08 17:17 | 47.69897 | -116.64894 | 31080 ft | 462 kts | 68° |
| 2026-05-08 17:17 | 47.70974 | -116.60359 | 30785 ft | 468 kts | 68° |
| 2026-05-08 17:18 | 47.72051 | -116.55796 | 30515 ft | 469 kts | 68° |
| 2026-05-08 17:18 | 47.73131 | -116.51213 | 30213 ft | 468 kts | 68° |
| 2026-05-08 17:18 | 47.74209 | -116.46649 | 29893 ft | 468 kts | 68° |
| 2026-05-08 17:18 | 47.75282 | -116.42079 | 29560 ft | 468 kts | 68° |
| 2026-05-08 17:19 | 47.76352 | -116.37519 | 29241 ft | 466 kts | 68° |
| 2026-05-08 17:19 | 47.77404 | -116.33026 | 28893 ft | 463 kts | 68° |
| 2026-05-08 17:19 | 47.78458 | -116.28514 | 28563 ft | 460 kts | 68° |
| 2026-05-08 17:19 | 47.79515 | -116.23976 | 28246 ft | 458 kts | 68° |
| 2026-05-08 17:20 | 47.80542 | -116.19560 | 27949 ft | 456 kts | 68° |
| 2026-05-08 17:20 | 47.81577 | -116.15099 | 27634 ft | 457 kts | 68° |
| 2026-05-08 17:20 | 47.82611 | -116.10635 | 27376 ft | 454 kts | 68° |
| 2026-05-08 17:20 | 47.83639 | -116.06196 | 27133 ft | 453 kts | 68° |
| 2026-05-08 17:21 | 47.84658 | -116.01761 | 26882 ft | 451 kts | 68° |
| 2026-05-08 17:21 | 47.85671 | -115.97368 | 26633 ft | 448 kts | 68° |
| 2026-05-08 17:21 | 47.86680 | -115.92971 | 26387 ft | 447 kts | 68° |
| 2026-05-08 17:21 | 47.87682 | -115.88610 | 26142 ft | 445 kts | 68° |
| 2026-05-08 17:22 | 47.88682 | -115.84243 | 25891 ft | 444 kts | 68° |
| 2026-05-08 17:22 | 47.89674 | -115.79900 | 25661 ft | 442 kts | 69° |
| 2026-05-08 17:22 | 47.90662 | -115.75564 | 25438 ft | 439 kts | 68° |
| 2026-05-08 17:22 | 47.91644 | -115.71245 | 25085 ft | 438 kts | 68° |
| 2026-05-08 17:23 | 47.92604 | -115.67010 | 24741 ft | 434 kts | 68° |
| 2026-05-08 17:23 | 47.93581 | -115.62698 | 24390 ft | 432 kts | 68° |
| 2026-05-08 17:23 | 47.94524 | -115.58534 | 24052 ft | 428 kts | 68° |
| 2026-05-08 17:23 | 47.95472 | -115.54327 | 23726 ft | 427 kts | 68° |
| 2026-05-08 17:24 | 47.96414 | -115.50143 | 23365 ft | 424 kts | 69° |
| 2026-05-08 17:24 | 47.97348 | -115.45989 | 22952 ft | 421 kts | 69° |
| 2026-05-08 17:24 | 47.98274 | -115.41864 | 22543 ft | 418 kts | 69° |
| 2026-05-08 17:24 | 47.99192 | -115.37757 | 22164 ft | 415 kts | 69° |
| 2026-05-08 17:25 | 48.00104 | -115.33679 | 21774 ft | 412 kts | 69° |
| 2026-05-08 17:25 | 48.01005 | -115.29636 | 21235 ft | 409 kts | 69° |
| 2026-05-08 17:25 | 48.01896 | -115.25636 | 20484 ft | 401 kts | 69° |
| 2026-05-08 17:25 | 48.02763 | -115.21734 | 19774 ft | 392 kts | 69° |
| 2026-05-08 17:26 | 48.03675 | -115.17950 | 19057 ft | 382 kts | 63° |
| 2026-05-08 17:26 | 48.04873 | -115.14464 | 18359 ft | 373 kts | 58° |
| 2026-05-08 17:26 | 48.06182 | -115.11151 | 17575 ft | 366 kts | 56° |
| 2026-05-08 17:26 | 48.07624 | -115.08074 | 16799 ft | 351 kts | 50° |
| 2026-05-08 17:27 | 48.09050 | -115.05323 | 16027 ft | 332 kts | 49° |
| 2026-05-08 17:27 | 48.10466 | -115.02643 | 15306 ft | 324 kts | 49° |
| 2026-05-08 17:27 | 48.11855 | -115.00038 | 14585 ft | 321 kts | 49° |
| 2026-05-08 17:27 | 48.13245 | -114.97421 | 13883 ft | 321 kts | 49° |
| 2026-05-08 17:28 | 48.14633 | -114.94806 | 13110 ft | 318 kts | 49° |
| 2026-05-08 17:28 | 48.16002 | -114.92228 | 12349 ft | 314 kts | 49° |
| 2026-05-08 17:28 | 48.17337 | -114.89708 | 11595 ft | 304 kts | 50° |
| 2026-05-08 17:28 | 48.18617 | -114.87182 | 10889 ft | 303 kts | 51° |
| 2026-05-08 17:29 | 48.19933 | -114.84736 | 10261 ft | 301 kts | 47° |
| 2026-05-08 17:29 | 48.21244 | -114.82318 | 10123 ft | 298 kts | 49° |
| 2026-05-08 17:29 | 48.22535 | -114.79869 | 10066 ft | 300 kts | 49° |
| 2026-05-08 17:29 | 48.23812 | -114.77428 | 10016 ft | 299 kts | 49° |
| 2026-05-08 17:30 | 48.25122 | -114.74928 | 9963 ft | 308 kts | 49° |
| 2026-05-08 17:30 | 48.26440 | -114.72434 | 9975 ft | 302 kts | 49° |
| 2026-05-08 17:30 | 48.27735 | -114.69960 | 9873 ft | 301 kts | 49° |
| 2026-05-08 17:30 | 48.29038 | -114.67460 | 9597 ft | 306 kts | 49° |
| 2026-05-08 17:31 | 48.30373 | -114.64938 | 9280 ft | 310 kts | 49° |
| 2026-05-08 17:31 | 48.31709 | -114.62374 | 8990 ft | 312 kts | 50° |
| 2026-05-08 17:31 | 48.33052 | -114.59805 | 8704 ft | 314 kts | 50° |
| 2026-05-08 17:31 | 48.34407 | -114.57227 | 8375 ft | 312 kts | 48° |
| 2026-05-08 17:32 | 48.35688 | -114.54755 | 8137 ft | 293 kts | 51° |
| 2026-05-08 17:32 | 48.36936 | -114.52346 | 8059 ft | 292 kts | 49° |
| 2026-05-08 17:32 | 48.38206 | -114.49955 | 7997 ft | 291 kts | 49° |
| 2026-05-08 17:32 | 48.39453 | -114.47572 | 8056 ft | 289 kts | 51° |
| 2026-05-08 17:33 | 48.40613 | -114.45099 | 8021 ft | 288 kts | 55° |
| 2026-05-08 17:33 | 48.41667 | -114.42541 | 7925 ft | 290 kts | 58° |
| 2026-05-08 17:33 | 48.42543 | -114.39759 | 7685 ft | 297 kts | 68° |
| 2026-05-08 17:33 | 48.43319 | -114.36837 | 7446 ft | 301 kts | 67° |
| 2026-05-08 17:34 | 48.44022 | -114.33898 | 7329 ft | 301 kts | 73° |
| 2026-05-08 17:34 | 48.44151 | -114.33173 | 7320 ft | 292 kts | 77° |
| 2026-05-08 17:34 | 48.44407 | -114.30470 | 7242 ft | 270 kts | 88° |
| 2026-05-08 17:34 | 48.44258 | -114.27701 | 6816 ft | 263 kts | 105° |
| 2026-05-08 17:35 | 48.43620 | -114.25175 | 6341 ft | 253 kts | 116° |
| 2026-05-08 17:35 | 48.42867 | -114.22858 | 5836 ft | 241 kts | 121° |
| 2026-05-08 17:35 | 48.41931 | -114.20822 | 5334 ft | 233 kts | 134° |
| 2026-05-08 17:35 | 48.40691 | -114.19382 | 5102 ft | 219 kts | 155° |
| 2026-05-08 17:36 | 48.39267 | -114.18743 | 5025 ft | 210 kts | 175° |
| 2026-05-08 17:36 | 48.37845 | -114.18880 | 4930 ft | 203 kts | 195° |
| 2026-05-08 17:36 | 48.36627 | -114.19782 | 4452 ft | 189 kts | 211° |
| 2026-05-08 17:36 | 48.35561 | -114.20821 | 3802 ft | 176 kts | 213° |
| 2026-05-08 17:37 | 48.34686 | -114.21770 | 3607 ft | 138 kts | 213° |
| 2026-05-08 17:37 | 48.33960 | -114.22522 | 3471 ft | 123 kts | 211° |
| 2026-05-08 17:37 | 48.33240 | -114.23254 | 3351 ft | 128 kts | 212° |
| 2026-05-08 17:37 | 48.32508 | -114.24027 | 3197 ft | 129 kts | 211° |
| 2026-05-08 17:38 | 48.31769 | -114.24797 | 2993 ft | 128 kts | 211° |
| 2026-05-08 17:38 | 48.31118 | -114.25470 | 2975 ft | 99 kts | 217° |
| 2026-05-08 17:38 | 48.30646 | -114.25968 | 2977 ft | 69 kts | 215° |
| 2026-05-08 17:38 | 48.30322 | -114.26293 | 2977 ft | 44 kts | 221° |
| 2026-05-08 17:39 | 48.30167 | -114.26457 | 2974 ft | 11 kts | 215° |
| 2026-05-08 17:39 | 48.30092 | -114.26495 | 2976 ft | 1 kts | 164° |
| 2026-05-08 17:39 | 48.30090 | -114.26491 | 2976 ft | 2 kts | 124° |
| 2026-05-08 17:39 | 48.30073 | -114.26443 | 2976 ft | 7 kts | 114° |
| 2026-05-08 17:40 | 48.30071 | -114.26363 | 2977 ft | 10 kts | 59° |
| 2026-05-08 17:40 | 48.30144 | -114.26281 | 2976 ft | 16 kts | 33° |
| 2026-05-08 17:40 | 48.30253 | -114.26168 | 2976 ft | 21 kts | 34° |
| 2026-05-08 17:40 | 48.30383 | -114.26034 | 2976 ft | 20 kts | 34° |
| 2026-05-08 17:41 | 48.30487 | -114.25925 | 2976 ft | 20 kts | 34° |
| 2026-05-08 17:41 | 48.30618 | -114.25795 | 2976 ft | 25 kts | 35° |
| 2026-05-08 17:41 | 48.30753 | -114.25647 | 2976 ft | 23 kts | 36° |
| 2026-05-08 17:41 | 48.30816 | -114.25581 | 2976 ft | 6 kts | 45° |
| 2026-05-08 17:42 | 48.30818 | -114.25530 | 2976 ft | 4 kts | 126° |
| 2026-05-08 17:42 | 48.30807 | -114.25497 | 2976 ft | 7 kts | 105° |
| 2026-05-08 17:42 | 48.30801 | -114.25442 | 2976 ft | 5 kts | 112° |
| 2026-05-08 17:42 | 48.30791 | -114.25413 | 2976 ft | 3 kts | 120° |
| 2026-05-08 17:43 | 48.30781 | -114.25388 | 2976 ft | 2 kts | 124° |
| 2026-05-08 17:43 | 48.30779 | -114.25384 | 2976 ft | 0 kts | 124° |